sensor_id;sensor_type;location;lat;lon;timestamp;P1;P2;P0
73973;PMS5003;62336;-26.094;27.994;2023-06-10T00:00:12;9;9;
73973;PMS5003;62336;-26.094;27.994;2023-06-10T00:02:36;7;7;
73973;PMS5003;62336;-26.094;27.994;2023-06-10T00:05:03;12;11;
73973;PMS5003;62336;-26.094;27.994;2023-06-10T00:07:28;10;9;
73973;PMS5003;62336;-26.094;27.994;2023-06-10T00:09:53;12;11;
73973;PMS5003;62336;-26.094;27.994;2023-06-10T00:12:19;6;6;
73973;PMS5003;62336;-26.094;27.994;2023-06-10T00:14:45;9;9;
73973;PMS5003;62336;-26.094;27.994;2023-06-10T00:17:11;10;8;
73973;PMS5003;62336;-26.094;27.994;2023-06-10T00:19:37;10;10;
73973;PMS5003;62336;-26.094;27.994;2023-06-10T00:22:02;11;8;
73973;PMS5003;62336;-26.094;27.994;2023-06-10T00:24:27;8;8;
73973;PMS5003;62336;-26.094;27.994;2023-06-10T00:26:52;9;8;
73973;PMS5003;62336;-26.094;27.994;2023-06-10T00:29:18;9;8;
73973;PMS5003;62336;-26.094;27.994;2023-06-10T00:31:44;6;5;
73973;PMS5003;62336;-26.094;27.994;2023-06-10T00:34:10;8;8;
73973;PMS5003;62336;-26.094;27.994;2023-06-10T00:36:36;8;8;
73973;PMS5003;62336;-26.094;27.994;2023-06-10T00:39:01;10;9;
73973;PMS5003;62336;-26.094;27.994;2023-06-10T00:41:26;9;9;
73973;PMS5003;62336;-26.094;27.994;2023-06-10T00:43:51;15;14;
73973;PMS5003;62336;-26.094;27.994;2023-06-10T00:46:16;9;9;
73973;PMS5003;62336;-26.094;27.994;2023-06-10T00:48:42;6;6;
73973;PMS5003;62336;-26.094;27.994;2023-06-10T00:51:08;8;7;
73973;PMS5003;62336;-26.094;27.994;2023-06-10T00:53:33;5;5;
73973;PMS5003;62336;-26.094;27.994;2023-06-10T00:55:59;8;7;
73973;PMS5003;62336;-26.094;27.994;2023-06-10T00:58:24;9;6;
73973;PMS5003;62336;-26.094;27.994;2023-06-10T01:00:49;6;5;
73973;PMS5003;62336;-26.094;27.994;2023-06-10T01:03:14;5;5;
73973;PMS5003;62336;-26.094;27.994;2023-06-10T01:05:39;7;6;
73973;PMS5003;62336;-26.094;27.994;2023-06-10T01:08:07;6;5;
73973;PMS5003;62336;-26.094;27.994;2023-06-10T01:10:31;5;5;
73973;PMS5003;62336;-26.094;27.994;2023-06-10T01:12:57;5;4;
73973;PMS5003;62336;-26.094;27.994;2023-06-10T01:15:20;6;5;
73973;PMS5003;62336;-26.094;27.994;2023-06-10T01:20:11;6;5;
73973;PMS5003;62336;-26.094;27.994;2023-06-10T01:22:37;4;4;
73973;PMS5003;62336;-26.094;27.994;2023-06-10T01:25:04;4;4;
73973;PMS5003;62336;-26.094;27.994;2023-06-10T01:27:30;4;4;
73973;PMS5003;62336;-26.094;27.994;2023-06-10T01:29:57;3;3;
73973;PMS5003;62336;-26.094;27.994;2023-06-10T01:32:22;5;4;
73973;PMS5003;62336;-26.094;27.994;2023-06-10T01:34:47;2;2;
73973;PMS5003;62336;-26.094;27.994;2023-06-10T01:37:13;4;4;
73973;PMS5003;62336;-26.094;27.994;2023-06-10T01:39:37;5;4;
73973;PMS5003;62336;-26.094;27.994;2023-06-10T01:42:02;4;3;
73973;PMS5003;62336;-26.094;27.994;2023-06-10T01:44:27;3;3;
73973;PMS5003;62336;-26.094;27.994;2023-06-10T01:46:52;5;4;
73973;PMS5003;62336;-26.094;27.994;2023-06-10T01:49:18;4;4;
73973;PMS5003;62336;-26.094;27.994;2023-06-10T01:51:43;5;4;
73973;PMS5003;62336;-26.094;27.994;2023-06-10T01:54:09;2;2;
73973;PMS5003;62336;-26.094;27.994;2023-06-10T01:56:35;6;5;
73973;PMS5003;62336;-26.094;27.994;2023-06-10T01:59:01;4;3;
73973;PMS5003;62336;-26.094;27.994;2023-06-10T02:01:26;6;5;
73973;PMS5003;62336;-26.094;27.994;2023-06-10T02:03:52;4;4;
73973;PMS5003;62336;-26.094;27.994;2023-06-10T02:06:17;4;4;
73973;PMS5003;62336;-26.094;27.994;2023-06-10T02:08:43;2;2;
73973;PMS5003;62336;-26.094;27.994;2023-06-10T02:11:08;4;4;
73973;PMS5003;62336;-26.094;27.994;2023-06-10T02:13:34;4;4;
73973;PMS5003;62336;-26.094;27.994;2023-06-10T02:15:59;6;4;
73973;PMS5003;62336;-26.094;27.994;2023-06-10T02:18:24;5;5;
73973;PMS5003;62336;-26.094;27.994;2023-06-10T02:20:49;4;4;
73973;PMS5003;62336;-26.094;27.994;2023-06-10T02:23:14;3;3;
73973;PMS5003;62336;-26.094;27.994;2023-06-10T02:25:40;5;4;
73973;PMS5003;62336;-26.094;27.994;2023-06-10T02:28:06;6;5;
73973;PMS5003;62336;-26.094;27.994;2023-06-10T02:30:32;4;4;
73973;PMS5003;62336;-26.094;27.994;2023-06-10T02:32:57;3;2;
73973;PMS5003;62336;-26.094;27.994;2023-06-10T02:35:23;4;3;
73973;PMS5003;62336;-26.094;27.994;2023-06-10T02:37:49;2;2;
73973;PMS5003;62336;-26.094;27.994;2023-06-10T02:40:15;3;3;
73973;PMS5003;62336;-26.094;27.994;2023-06-10T02:42:41;3;3;
73973;PMS5003;62336;-26.094;27.994;2023-06-10T02:45:07;2;2;
73973;PMS5003;62336;-26.094;27.994;2023-06-10T02:47:32;2;2;
73973;PMS5003;62336;-26.094;27.994;2023-06-10T02:49:58;2;2;
73973;PMS5003;62336;-26.094;27.994;2023-06-10T02:52:24;2;2;
73973;PMS5003;62336;-26.094;27.994;2023-06-10T02:54:50;4;3;
73973;PMS5003;62336;-26.094;27.994;2023-06-10T02:57:16;3;3;
73973;PMS5003;62336;-26.094;27.994;2023-06-10T02:59:41;3;3;
73973;PMS5003;62336;-26.094;27.994;2023-06-10T03:02:06;2;2;
73973;PMS5003;62336;-26.094;27.994;2023-06-10T03:04:31;2;2;
73973;PMS5003;62336;-26.094;27.994;2023-06-10T03:06:57;5;5;
73973;PMS5003;62336;-26.094;27.994;2023-06-10T03:09:22;4;4;
73973;PMS5003;62336;-26.094;27.994;2023-06-10T03:11:47;3;3;
73973;PMS5003;62336;-26.094;27.994;2023-06-10T03:14:13;4;3;
73973;PMS5003;62336;-26.094;27.994;2023-06-10T03:16:39;4;3;
73973;PMS5003;62336;-26.094;27.994;2023-06-10T03:19:05;2;2;
73973;PMS5003;62336;-26.094;27.994;2023-06-10T03:21:31;3;3;
73973;PMS5003;62336;-26.094;27.994;2023-06-10T03:23:56;5;5;
73973;PMS5003;62336;-26.094;27.994;2023-06-10T03:26:22;4;3;
73973;PMS5003;62336;-26.094;27.994;2023-06-10T03:28:48;2;2;
73973;PMS5003;62336;-26.094;27.994;2023-06-10T03:31:14;2;2;
73973;PMS5003;62336;-26.094;27.994;2023-06-10T03:33:39;3;3;
73973;PMS5003;62336;-26.094;27.994;2023-06-10T03:36:06;2;2;
73973;PMS5003;62336;-26.094;27.994;2023-06-10T03:38:30;3;3;
73973;PMS5003;62336;-26.094;27.994;2023-06-10T03:40:56;3;3;
73973;PMS5003;62336;-26.094;27.994;2023-06-10T03:43:22;3;3;
73973;PMS5003;62336;-26.094;27.994;2023-06-10T03:45:47;2;2;
73973;PMS5003;62336;-26.094;27.994;2023-06-10T03:48:12;2;1;
73973;PMS5003;62336;-26.094;27.994;2023-06-10T03:50:38;4;4;
73973;PMS5003;62336;-26.094;27.994;2023-06-10T03:53:04;3;3;
73973;PMS5003;62336;-26.094;27.994;2023-06-10T03:55:29;2;2;
73973;PMS5003;62336;-26.094;27.994;2023-06-10T03:57:55;3;3;
73973;PMS5003;62336;-26.094;27.994;2023-06-10T04:00:21;4;3;
73973;PMS5003;62336;-26.094;27.994;2023-06-10T04:02:47;4;4;
73973;PMS5003;62336;-26.094;27.994;2023-06-10T04:05:13;3;3;
73973;PMS5003;62336;-26.094;27.994;2023-06-10T04:07:38;4;3;
73973;PMS5003;62336;-26.094;27.994;2023-06-10T04:10:05;4;4;
73973;PMS5003;62336;-26.094;27.994;2023-06-10T04:12:30;3;3;
73973;PMS5003;62336;-26.094;27.994;2023-06-10T04:14:55;5;5;
73973;PMS5003;62336;-26.094;27.994;2023-06-10T04:17:21;4;4;
73973;PMS5003;62336;-26.094;27.994;2023-06-10T04:19:46;4;4;
73973;PMS5003;62336;-26.094;27.994;2023-06-10T04:22:12;4;4;
73973;PMS5003;62336;-26.094;27.994;2023-06-10T04:24:38;6;5;
73973;PMS5003;62336;-26.094;27.994;2023-06-10T04:27:04;4;4;
73973;PMS5003;62336;-26.094;27.994;2023-06-10T04:29:30;5;5;
73973;PMS5003;62336;-26.094;27.994;2023-06-10T04:31:54;5;4;
73973;PMS5003;62336;-26.094;27.994;2023-06-10T04:34:19;4;3;
73973;PMS5003;62336;-26.094;27.994;2023-06-10T04:36:45;4;4;
73973;PMS5003;62336;-26.094;27.994;2023-06-10T04:39:11;5;5;
73973;PMS5003;62336;-26.094;27.994;2023-06-10T04:41:37;5;4;
73973;PMS5003;62336;-26.094;27.994;2023-06-10T04:44:03;5;5;
73973;PMS5003;62336;-26.094;27.994;2023-06-10T04:46:29;4;4;
73973;PMS5003;62336;-26.094;27.994;2023-06-10T04:48:54;5;5;
73973;PMS5003;62336;-26.094;27.994;2023-06-10T04:51:20;7;7;
73973;PMS5003;62336;-26.094;27.994;2023-06-10T04:53:46;7;7;
73973;PMS5003;62336;-26.094;27.994;2023-06-10T04:56:12;5;4;
73973;PMS5003;62336;-26.094;27.994;2023-06-10T04:58:37;8;7;
73973;PMS5003;62336;-26.094;27.994;2023-06-10T05:01:03;6;6;
73973;PMS5003;62336;-26.094;27.994;2023-06-10T05:03:28;7;7;
73973;PMS5003;62336;-26.094;27.994;2023-06-10T05:05:54;8;8;
73973;PMS5003;62336;-26.094;27.994;2023-06-10T05:08:19;6;6;
73973;PMS5003;62336;-26.094;27.994;2023-06-10T05:10:44;5;5;
73973;PMS5003;62336;-26.094;27.994;2023-06-10T05:13:09;19;15;
73973;PMS5003;62336;-26.094;27.994;2023-06-10T05:15:35;7;6;
73973;PMS5003;62336;-26.094;27.994;2023-06-10T05:18:00;7;7;
73973;PMS5003;62336;-26.094;27.994;2023-06-10T05:20:25;6;6;
73973;PMS5003;62336;-26.094;27.994;2023-06-10T05:22:50;7;7;
73973;PMS5003;62336;-26.094;27.994;2023-06-10T05:25:16;7;7;
73973;PMS5003;62336;-26.094;27.994;2023-06-10T05:27:41;10;9;
73973;PMS5003;62336;-26.094;27.994;2023-06-10T05:30:07;10;9;
73973;PMS5003;62336;-26.094;27.994;2023-06-10T05:32:31;10;9;
73973;PMS5003;62336;-26.094;27.994;2023-06-10T05:34:56;11;10;
73973;PMS5003;62336;-26.094;27.994;2023-06-10T05:37:21;9;8;
73973;PMS5003;62336;-26.094;27.994;2023-06-10T05:39:46;9;9;
73973;PMS5003;62336;-26.094;27.994;2023-06-10T05:42:12;11;10;
73973;PMS5003;62336;-26.094;27.994;2023-06-10T05:44:38;11;10;
73973;PMS5003;62336;-26.094;27.994;2023-06-10T05:47:04;11;10;
73973;PMS5003;62336;-26.094;27.994;2023-06-10T05:49:29;11;9;
73973;PMS5003;62336;-26.094;27.994;2023-06-10T05:51:54;10;9;
73973;PMS5003;62336;-26.094;27.994;2023-06-10T05:54:21;9;7;
73973;PMS5003;62336;-26.094;27.994;2023-06-10T05:56:46;10;8;
73973;PMS5003;62336;-26.094;27.994;2023-06-10T05:59:11;9;8;
73973;PMS5003;62336;-26.094;27.994;2023-06-10T06:01:36;8;8;
73973;PMS5003;62336;-26.094;27.994;2023-06-10T06:04:02;7;7;
73973;PMS5003;62336;-26.094;27.994;2023-06-10T06:06:28;8;7;
73973;PMS5003;62336;-26.094;27.994;2023-06-10T06:08:54;7;6;
73973;PMS5003;62336;-26.094;27.994;2023-06-10T06:11:19;6;6;
73973;PMS5003;62336;-26.094;27.994;2023-06-10T06:13:45;4;4;
73973;PMS5003;62336;-26.094;27.994;2023-06-10T06:16:11;4;4;
73973;PMS5003;62336;-26.094;27.994;2023-06-10T06:18:37;4;4;
73973;PMS5003;62336;-26.094;27.994;2023-06-10T06:21:02;5;5;
73973;PMS5003;62336;-26.094;27.994;2023-06-10T06:23:28;4;3;
73973;PMS5003;62336;-26.094;27.994;2023-06-10T06:25:54;5;4;
73973;PMS5003;62336;-26.094;27.994;2023-06-10T06:28:19;2;2;
73973;PMS5003;62336;-26.094;27.994;2023-06-10T06:30:46;3;3;
73973;PMS5003;62336;-26.094;27.994;2023-06-10T06:33:11;2;2;
73973;PMS5003;62336;-26.094;27.994;2023-06-10T06:35:37;3;3;
73973;PMS5003;62336;-26.094;27.994;2023-06-10T06:38:03;3;2;
73973;PMS5003;62336;-26.094;27.994;2023-06-10T06:40:29;2;2;
73973;PMS5003;62336;-26.094;27.994;2023-06-10T06:42:55;2;1;
73973;PMS5003;62336;-26.094;27.994;2023-06-10T06:45:20;2;2;
73973;PMS5003;62336;-26.094;27.994;2023-06-10T06:47:46;5;3;
73973;PMS5003;62336;-26.094;27.994;2023-06-10T06:50:12;4;3;
73973;PMS5003;62336;-26.094;27.994;2023-06-10T06:52:38;4;3;
73973;PMS5003;62336;-26.094;27.994;2023-06-10T06:55:04;3;3;
73973;PMS5003;62336;-26.094;27.994;2023-06-10T06:57:28;2;2;
73973;PMS5003;62336;-26.094;27.994;2023-06-10T06:59:54;4;3;
73973;PMS5003;62336;-26.094;27.994;2023-06-10T07:02:19;1;1;
73973;PMS5003;62336;-26.094;27.994;2023-06-10T07:04:45;3;3;
73973;PMS5003;62336;-26.094;27.994;2023-06-10T07:07:11;3;3;
73973;PMS5003;62336;-26.094;27.994;2023-06-10T07:09:37;5;4;
73973;PMS5003;62336;-26.094;27.994;2023-06-10T07:12:03;5;4;
73973;PMS5003;62336;-26.094;27.994;2023-06-10T07:14:29;5;4;
73973;PMS5003;62336;-26.094;27.994;2023-06-10T07:16:55;3;2;
73973;PMS5003;62336;-26.094;27.994;2023-06-10T07:19:21;4;3;
73973;PMS5003;62336;-26.094;27.994;2023-06-10T07:21:46;4;4;
73973;PMS5003;62336;-26.094;27.994;2023-06-10T07:24:12;8;8;
73973;PMS5003;62336;-26.094;27.994;2023-06-10T07:26:38;4;3;
73973;PMS5003;62336;-26.094;27.994;2023-06-10T07:29:04;3;3;
73973;PMS5003;62336;-26.094;27.994;2023-06-10T07:31:29;5;4;
73973;PMS5003;62336;-26.094;27.994;2023-06-10T07:33:55;4;4;
73973;PMS5003;62336;-26.094;27.994;2023-06-10T07:36:21;3;3;
73973;PMS5003;62336;-26.094;27.994;2023-06-10T07:38:47;2;2;
73973;PMS5003;62336;-26.094;27.994;2023-06-10T07:41:13;2;2;
73973;PMS5003;62336;-26.094;27.994;2023-06-10T07:43:39;3;2;
73973;PMS5003;62336;-26.094;27.994;2023-06-10T07:46:05;2;2;
73973;PMS5003;62336;-26.094;27.994;2023-06-10T07:48:30;1;1;
73973;PMS5003;62336;-26.094;27.994;2023-06-10T07:50:56;2;2;
73973;PMS5003;62336;-26.094;27.994;2023-06-10T07:53:22;3;1;
73973;PMS5003;62336;-26.094;27.994;2023-06-10T07:55:48;2;2;
73973;PMS5003;62336;-26.094;27.994;2023-06-10T07:58:13;3;2;
73973;PMS5003;62336;-26.094;27.994;2023-06-10T08:00:39;3;3;
73973;PMS5003;62336;-26.094;27.994;2023-06-10T08:03:04;2;2;
73973;PMS5003;62336;-26.094;27.994;2023-06-10T08:05:30;6;5;
73973;PMS5003;62336;-26.094;27.994;2023-06-10T08:07:55;3;3;
73973;PMS5003;62336;-26.094;27.994;2023-06-10T08:10:20;4;3;
73973;PMS5003;62336;-26.094;27.994;2023-06-10T08:12:47;4;3;
73973;PMS5003;62336;-26.094;27.994;2023-06-10T08:15:12;4;4;
73973;PMS5003;62336;-26.094;27.994;2023-06-10T08:17:38;3;3;
73973;PMS5003;62336;-26.094;27.994;2023-06-10T08:20:04;4;4;
73973;PMS5003;62336;-26.094;27.994;2023-06-10T08:22:29;3;3;
73973;PMS5003;62336;-26.094;27.994;2023-06-10T08:24:55;4;3;
73973;PMS5003;62336;-26.094;27.994;2023-06-10T08:27:21;4;4;
73973;PMS5003;62336;-26.094;27.994;2023-06-10T08:29:46;3;3;
73973;PMS5003;62336;-26.094;27.994;2023-06-10T08:32:12;4;3;
73973;PMS5003;62336;-26.094;27.994;2023-06-10T08:34:38;2;2;
73973;PMS5003;62336;-26.094;27.994;2023-06-10T08:37:05;3;3;
73973;PMS5003;62336;-26.094;27.994;2023-06-10T08:39:29;3;3;
73973;PMS5003;62336;-26.094;27.994;2023-06-10T08:41:58;4;3;
73973;PMS5003;62336;-26.094;27.994;2023-06-10T08:44:22;4;4;
73973;PMS5003;62336;-26.094;27.994;2023-06-10T08:46:47;3;3;
73973;PMS5003;62336;-26.094;27.994;2023-06-10T08:49:15;4;3;
73973;PMS5003;62336;-26.094;27.994;2023-06-10T08:51:39;4;4;
73973;PMS5003;62336;-26.094;27.994;2023-06-10T08:54:09;3;3;
73973;PMS5003;62336;-26.094;27.994;2023-06-10T08:56:30;2;2;
73973;PMS5003;62336;-26.094;27.994;2023-06-10T08:58:56;3;3;
73973;PMS5003;62336;-26.094;27.994;2023-06-10T09:01:22;2;2;
73973;PMS5003;62336;-26.094;27.994;2023-06-10T09:03:47;5;4;
73973;PMS5003;62336;-26.094;27.994;2023-06-10T09:06:13;3;3;
73973;PMS5003;62336;-26.094;27.994;2023-06-10T09:08:39;2;2;
73973;PMS5003;62336;-26.094;27.994;2023-06-10T09:11:05;0;0;
73973;PMS5003;62336;-26.094;27.994;2023-06-10T09:13:31;0;0;
73973;PMS5003;62336;-26.094;27.994;2023-06-10T09:15:57;2;2;
73973;PMS5003;62336;-26.094;27.994;2023-06-10T09:18:22;0;0;
73973;PMS5003;62336;-26.094;27.994;2023-06-10T09:20:48;1;0;
73973;PMS5003;62336;-26.094;27.994;2023-06-10T09:23:15;0;0;
73973;PMS5003;62336;-26.094;27.994;2023-06-10T09:25:40;2;2;
73973;PMS5003;62336;-26.094;27.994;2023-06-10T09:28:12;2;2;
73973;PMS5003;62336;-26.094;27.994;2023-06-10T09:30:32;1;1;
73973;PMS5003;62336;-26.094;27.994;2023-06-10T09:32:58;1;1;
73973;PMS5003;62336;-26.094;27.994;2023-06-10T09:35:23;4;4;
73973;PMS5003;62336;-26.094;27.994;2023-06-10T09:37:50;1;0;
73973;PMS5003;62336;-26.094;27.994;2023-06-10T09:40:14;3;3;
73973;PMS5003;62336;-26.094;27.994;2023-06-10T09:42:39;2;2;
73973;PMS5003;62336;-26.094;27.994;2023-06-10T09:45:06;2;2;
73973;PMS5003;62336;-26.094;27.994;2023-06-10T09:47:30;2;2;
73973;PMS5003;62336;-26.094;27.994;2023-06-10T09:49:56;4;2;
73973;PMS5003;62336;-26.094;27.994;2023-06-10T09:52:22;1;1;
73973;PMS5003;62336;-26.094;27.994;2023-06-10T09:54:48;1;1;
73973;PMS5003;62336;-26.094;27.994;2023-06-10T09:57:14;0;0;
73973;PMS5003;62336;-26.094;27.994;2023-06-10T09:59:40;1;1;
73973;PMS5003;62336;-26.094;27.994;2023-06-10T10:02:06;2;2;
73973;PMS5003;62336;-26.094;27.994;2023-06-10T10:04:31;1;1;
73973;PMS5003;62336;-26.094;27.994;2023-06-10T10:06:57;2;2;
73973;PMS5003;62336;-26.094;27.994;2023-06-10T10:09:23;2;2;
73973;PMS5003;62336;-26.094;27.994;2023-06-10T10:11:49;2;2;
73973;PMS5003;62336;-26.094;27.994;2023-06-10T10:14:15;2;2;
73973;PMS5003;62336;-26.094;27.994;2023-06-10T10:16:41;3;3;
73973;PMS5003;62336;-26.094;27.994;2023-06-10T10:19:07;3;3;
73973;PMS5003;62336;-26.094;27.994;2023-06-10T10:21:34;3;3;
73973;PMS5003;62336;-26.094;27.994;2023-06-10T10:23:59;1;1;
73973;PMS5003;62336;-26.094;27.994;2023-06-10T10:26:24;3;3;
73973;PMS5003;62336;-26.094;27.994;2023-06-10T10:28:53;2;2;
73973;PMS5003;62336;-26.094;27.994;2023-06-10T10:31:15;3;3;
73973;PMS5003;62336;-26.094;27.994;2023-06-10T10:33:42;3;3;
73973;PMS5003;62336;-26.094;27.994;2023-06-10T10:36:07;3;3;
73973;PMS5003;62336;-26.094;27.994;2023-06-10T10:38:32;3;3;
73973;PMS5003;62336;-26.094;27.994;2023-06-10T10:40:58;4;4;
73973;PMS5003;62336;-26.094;27.994;2023-06-10T10:43:23;3;3;
73973;PMS5003;62336;-26.094;27.994;2023-06-10T10:48:14;5;5;
73973;PMS5003;62336;-26.094;27.994;2023-06-10T10:50:40;4;4;
73973;PMS5003;62336;-26.094;27.994;2023-06-10T10:53:06;3;3;
73973;PMS5003;62336;-26.094;27.994;2023-06-10T10:55:32;5;4;
73973;PMS5003;62336;-26.094;27.994;2023-06-10T10:57:58;2;2;
73973;PMS5003;62336;-26.094;27.994;2023-06-10T11:00:25;3;3;
73973;PMS5003;62336;-26.094;27.994;2023-06-10T11:02:49;4;4;
73973;PMS5003;62336;-26.094;27.994;2023-06-10T11:05:15;3;2;
73973;PMS5003;62336;-26.094;27.994;2023-06-10T11:07:41;2;2;
73973;PMS5003;62336;-26.094;27.994;2023-06-10T11:10:07;2;1;
73973;PMS5003;62336;-26.094;27.994;2023-06-10T11:12:41;5;5;
73973;PMS5003;62336;-26.094;27.994;2023-06-10T11:14:59;3;3;
73973;PMS5003;62336;-26.094;27.994;2023-06-10T11:17:24;6;6;
73973;PMS5003;62336;-26.094;27.994;2023-06-10T11:19:50;6;6;
73973;PMS5003;62336;-26.094;27.994;2023-06-10T11:22:16;8;7;
73973;PMS5003;62336;-26.094;27.994;2023-06-10T11:24:42;7;6;
73973;PMS5003;62336;-26.094;27.994;2023-06-10T11:27:16;4;4;
73973;PMS5003;62336;-26.094;27.994;2023-06-10T11:29:32;7;7;
73973;PMS5003;62336;-26.094;27.994;2023-06-10T11:31:58;12;10;
73973;PMS5003;62336;-26.094;27.994;2023-06-10T11:34:24;9;8;
73973;PMS5003;62336;-26.094;27.994;2023-06-10T11:36:49;10;10;
73973;PMS5003;62336;-26.094;27.994;2023-06-10T11:39:15;8;8;
73973;PMS5003;62336;-26.094;27.994;2023-06-10T11:41:41;12;12;
73973;PMS5003;62336;-26.094;27.994;2023-06-10T11:44:08;14;14;
73973;PMS5003;62336;-26.094;27.994;2023-06-10T11:46:32;13;12;
73973;PMS5003;62336;-26.094;27.994;2023-06-10T11:48:58;11;11;
73973;PMS5003;62336;-26.094;27.994;2023-06-10T11:51:25;15;15;
73973;PMS5003;62336;-26.094;27.994;2023-06-10T11:53:49;19;17;
73973;PMS5003;62336;-26.094;27.994;2023-06-10T11:56:19;20;20;
73973;PMS5003;62336;-26.094;27.994;2023-06-10T11:58:41;21;21;
73973;PMS5003;62336;-26.094;27.994;2023-06-10T12:01:06;27;26;
73973;PMS5003;62336;-26.094;27.994;2023-06-10T12:03:35;33;32;
73973;PMS5003;62336;-26.094;27.994;2023-06-10T12:05:57;31;30;
73973;PMS5003;62336;-26.094;27.994;2023-06-10T12:08:22;35;33;
73973;PMS5003;62336;-26.094;27.994;2023-06-10T12:10:48;30;29;
73973;PMS5003;62336;-26.094;27.994;2023-06-10T12:13:13;24;23;
73973;PMS5003;62336;-26.094;27.994;2023-06-10T12:15:39;21;21;
73973;PMS5003;62336;-26.094;27.994;2023-06-10T12:18:04;18;17;
73973;PMS5003;62336;-26.094;27.994;2023-06-10T12:20:30;16;14;
73973;PMS5003;62336;-26.094;27.994;2023-06-10T12:22:54;16;15;
73973;PMS5003;62336;-26.094;27.994;2023-06-10T12:25:24;16;15;
73973;PMS5003;62336;-26.094;27.994;2023-06-10T12:27:50;24;22;
73973;PMS5003;62336;-26.094;27.994;2023-06-10T12:30:10;23;22;
73973;PMS5003;62336;-26.094;27.994;2023-06-10T12:32:36;20;20;
73973;PMS5003;62336;-26.094;27.994;2023-06-10T12:35:02;24;23;
73973;PMS5003;62336;-26.094;27.994;2023-06-10T12:37:27;37;35;
73973;PMS5003;62336;-26.094;27.994;2023-06-10T12:39:52;35;34;
73973;PMS5003;62336;-26.094;27.994;2023-06-10T12:42:17;41;38;
73973;PMS5003;62336;-26.094;27.994;2023-06-10T12:44:42;28;28;
73973;PMS5003;62336;-26.094;27.994;2023-06-10T12:47:08;28;28;
73973;PMS5003;62336;-26.094;27.994;2023-06-10T12:49:33;31;31;
73973;PMS5003;62336;-26.094;27.994;2023-06-10T12:51:59;30;29;
73973;PMS5003;62336;-26.094;27.994;2023-06-10T12:54:24;27;27;
73973;PMS5003;62336;-26.094;27.994;2023-06-10T12:56:49;34;31;
73973;PMS5003;62336;-26.094;27.994;2023-06-10T12:59:14;29;28;
73973;PMS5003;62336;-26.094;27.994;2023-06-10T13:01:40;30;29;
73973;PMS5003;62336;-26.094;27.994;2023-06-10T13:04:06;35;31;
73973;PMS5003;62336;-26.094;27.994;2023-06-10T13:06:31;33;32;
73973;PMS5003;62336;-26.094;27.994;2023-06-10T13:08:56;31;29;
73973;PMS5003;62336;-26.094;27.994;2023-06-10T13:11:22;34;33;
73973;PMS5003;62336;-26.094;27.994;2023-06-10T13:13:47;29;28;
73973;PMS5003;62336;-26.094;27.994;2023-06-10T13:16:13;30;27;
73973;PMS5003;62336;-26.094;27.994;2023-06-10T13:18:37;29;27;
73973;PMS5003;62336;-26.094;27.994;2023-06-10T13:21:03;25;25;
73973;PMS5003;62336;-26.094;27.994;2023-06-10T13:23:28;30;28;
73973;PMS5003;62336;-26.094;27.994;2023-06-10T13:25:54;27;27;
73973;PMS5003;62336;-26.094;27.994;2023-06-10T13:28:19;24;23;
73973;PMS5003;62336;-26.094;27.994;2023-06-10T13:30:44;27;27;
73973;PMS5003;62336;-26.094;27.994;2023-06-10T13:33:09;31;31;
73973;PMS5003;62336;-26.094;27.994;2023-06-10T13:35:35;38;34;
73973;PMS5003;62336;-26.094;27.994;2023-06-10T13:38:02;36;34;
73973;PMS5003;62336;-26.094;27.994;2023-06-10T13:40:27;39;36;
73973;PMS5003;62336;-26.094;27.994;2023-06-10T13:42:52;39;37;
73973;PMS5003;62336;-26.094;27.994;2023-06-10T13:45:17;36;32;
73973;PMS5003;62336;-26.094;27.994;2023-06-10T13:47:43;34;34;
73973;PMS5003;62336;-26.094;27.994;2023-06-10T13:50:09;38;37;
73973;PMS5003;62336;-26.094;27.994;2023-06-10T13:52:34;41;39;
73973;PMS5003;62336;-26.094;27.994;2023-06-10T13:54:59;46;45;
73973;PMS5003;62336;-26.094;27.994;2023-06-10T13:57:24;41;38;
73973;PMS5003;62336;-26.094;27.994;2023-06-10T13:59:49;40;39;
73973;PMS5003;62336;-26.094;27.994;2023-06-10T14:02:15;41;40;
73973;PMS5003;62336;-26.094;27.994;2023-06-10T14:04:41;41;39;
73973;PMS5003;62336;-26.094;27.994;2023-06-10T14:07:07;40;37;
73973;PMS5003;62336;-26.094;27.994;2023-06-10T14:09:31;45;42;
73973;PMS5003;62336;-26.094;27.994;2023-06-10T14:11:56;41;40;
73973;PMS5003;62336;-26.094;27.994;2023-06-10T14:14:21;45;41;
73973;PMS5003;62336;-26.094;27.994;2023-06-10T14:16:47;36;33;
73973;PMS5003;62336;-26.094;27.994;2023-06-10T14:19:12;42;36;
73973;PMS5003;62336;-26.094;27.994;2023-06-10T14:21:38;39;35;
73973;PMS5003;62336;-26.094;27.994;2023-06-10T14:24:04;14;13;
73973;PMS5003;62336;-26.094;27.994;2023-06-10T14:26:29;10;9;
73973;PMS5003;62336;-26.094;27.994;2023-06-10T14:28:54;11;11;
73973;PMS5003;62336;-26.094;27.994;2023-06-10T14:31:20;13;11;
73973;PMS5003;62336;-26.094;27.994;2023-06-10T14:33:45;5;5;
73973;PMS5003;62336;-26.094;27.994;2023-06-10T14:36:11;7;7;
73973;PMS5003;62336;-26.094;27.994;2023-06-10T14:38:37;6;6;
73973;PMS5003;62336;-26.094;27.994;2023-06-10T14:41:03;5;5;
73973;PMS5003;62336;-26.094;27.994;2023-06-10T14:43:28;7;7;
73973;PMS5003;62336;-26.094;27.994;2023-06-10T14:45:54;7;7;
73973;PMS5003;62336;-26.094;27.994;2023-06-10T14:48:19;7;7;
73973;PMS5003;62336;-26.094;27.994;2023-06-10T14:50:55;6;6;
73973;PMS5003;62336;-26.094;27.994;2023-06-10T14:53:10;6;5;
73973;PMS5003;62336;-26.094;27.994;2023-06-10T14:55:36;6;6;
73973;PMS5003;62336;-26.094;27.994;2023-06-10T14:58:02;6;6;
73973;PMS5003;62336;-26.094;27.994;2023-06-10T15:00:27;7;6;
73973;PMS5003;62336;-26.094;27.994;2023-06-10T15:02:52;10;9;
73973;PMS5003;62336;-26.094;27.994;2023-06-10T15:05:18;9;9;
73973;PMS5003;62336;-26.094;27.994;2023-06-10T15:07:43;14;14;
73973;PMS5003;62336;-26.094;27.994;2023-06-10T15:10:09;16;15;
73973;PMS5003;62336;-26.094;27.994;2023-06-10T15:12:34;17;17;
73973;PMS5003;62336;-26.094;27.994;2023-06-10T15:14:59;21;19;
73973;PMS5003;62336;-26.094;27.994;2023-06-10T15:17:25;21;19;
73973;PMS5003;62336;-26.094;27.994;2023-06-10T15:19:50;15;15;
73973;PMS5003;62336;-26.094;27.994;2023-06-10T15:22:15;21;20;
73973;PMS5003;62336;-26.094;27.994;2023-06-10T15:24:41;18;18;
73973;PMS5003;62336;-26.094;27.994;2023-06-10T15:27:06;38;37;
73973;PMS5003;62336;-26.094;27.994;2023-06-10T15:29:31;100;94;
73973;PMS5003;62336;-26.094;27.994;2023-06-10T15:31:57;105;97;
73973;PMS5003;62336;-26.094;27.994;2023-06-10T15:34:22;71;68;
73973;PMS5003;62336;-26.094;27.994;2023-06-10T15:36:48;35;33;
73973;PMS5003;62336;-26.094;27.994;2023-06-10T15:39:13;33;28;
73973;PMS5003;62336;-26.094;27.994;2023-06-10T15:41:39;29;29;
73973;PMS5003;62336;-26.094;27.994;2023-06-10T15:44:05;33;29;
73973;PMS5003;62336;-26.094;27.994;2023-06-10T15:46:30;31;29;
73973;PMS5003;62336;-26.094;27.994;2023-06-10T15:48:56;40;40;
73973;PMS5003;62336;-26.094;27.994;2023-06-10T15:51:21;33;28;
73973;PMS5003;62336;-26.094;27.994;2023-06-10T15:53:47;35;32;
73973;PMS5003;62336;-26.094;27.994;2023-06-10T15:56:12;36;34;
73973;PMS5003;62336;-26.094;27.994;2023-06-10T15:58:37;35;33;
73973;PMS5003;62336;-26.094;27.994;2023-06-10T16:01:02;30;29;